Oakesdale, WA (99158)

7:55 PM PDT on August 26, 2016 (GMT -0700)
APRSWXNET | | Change Station
Active Advisory: Fire Weather Warning

Elev 2732 ft 47.02 °N, 117.15 °W | Updated 19 minutes ago

Clear
Clear
75 °F
Feels Like 77 °F
N
0
Wind Variable Wind from SSW
Gusts 1.0 mph

Today
High -- | Low -- °F
--% Chance of Precip.
Yesterday
High -- | Low -- °F
Precip. -- in
Pressure 29.88 in
Visibility 10.0 miles
Clouds Clear
Heat Index 77 °F
Dew Point 40 °F
Humidity 28%
Rainfall in
Snow Depth Not available.
6:01 AM 7:39 PM
Waning Crescent, 29% visible
METAR KPUW 270153Z AUTO 27007KT 10SM CLR 27/02 A2991 RMK AO2 SLP116 T02670022
Pressure 29.88 in
Visibility 10.0 miles
Clouds Clear
Heat Index 77 °F
Dew Point 40 °F
Humidity 28%
Rainfall in
Snow Depth Not available.
6:01 AM 7:39 PM
Waning Crescent, 29% visible
METAR KPUW 270153Z AUTO 27007KT 10SM CLR 27/02 A2991 RMK AO2 SLP116 T02670022

10-Day Weather Forecast

Almanac

Astronomy

Aug. 26, 2016 Rise Set
Actual Time
Civil Twilight
Nautical Twilight
Astronomical Twilight
Moon
Length of Visible Light
Length of Day
Tomorrow will be .
, % of the Moon is Illuminated

Today's Extremes

State Highs State Lows

Community

WunderPhotos

Upload Photos

1,935,281 photos uploaded!

WunderBlog® & News

Nearby

Air Quality

  Air Quality AQ Index Pollutant
Not available.

Snow Depth

Station Depth Elevation

Earthquake Activity

City Distance Mag. Time & Date
Minimum magnitude displayed is 2.5.

Coastal Water Temperatures

Place Temperature

Stations

Nearby Weather Stations

Station Location Temp. Windchill Dew Point Humidity Wind Precip. Elev Updated Type
                   

Watches & Warnings

Fire Weather Warning
Issued: 12:09 PM PDT Aug. 26, 2016 – National Weather Service

... Red flag warning in effect from 1 PM to 9 PM PDT Saturday for
wind and low relative humidity for central and eastern Columbia
Basin... Palouse... Spokane area... and Idaho Panhandle mainly south
of Sandpoint...

The National Weather Service in Spokane has issued a red flag
warning for wind and low relative humidity... which is in effect
from 1 PM to 9 PM PDT Saturday. The Fire Weather Watch is no
longer in effect.

* Affected area: fire weather zone 101 northern and central
Idaho Panhandle (zone 101)... fire weather zone 673 East
Washington northern Columbia Basin (zone 673) and fire weather
zone 674 East Washington Palouse and Spokane area (zone 674).

* Winds: southwest 15 to 25 mph with gusts up to 35 mph.

* Relative humidities: 15 to 25 percent.

* Impacts: dry... warm... and breezy conditions will promote rapid
fire spread with any new or existing fires.

Precautionary/preparedness actions...

A red flag warning means that critical fire weather conditions
are either occurring now... or will shortly. A combination of
strong winds... low relative humidity... and warm temperatures will
create extreme fire growth potential.